createdAt,value
2018-09-17T00:00:23.018Z,3.72
2018-09-17T00:00:58.187Z,3.27
2018-09-17T00:01:33.411Z,3.60
2018-09-17T00:02:08.547Z,3.58
2018-09-17T00:02:43.854Z,3.22
2018-09-17T00:03:19.137Z,3.75
2018-09-17T00:03:54.393Z,3.72
2018-09-17T00:04:29.560Z,3.72
2018-09-17T00:05:05.011Z,3.50
2018-09-17T00:05:40.179Z,3.33
2018-09-17T00:06:15.478Z,3.52
2018-09-17T00:06:51.407Z,3.62
2018-09-17T00:07:26.575Z,3.67
2018-09-17T00:08:01.861Z,3.52
2018-09-17T00:08:37.049Z,3.47
2018-09-17T00:09:13.765Z,4.05
2018-09-17T00:09:49.281Z,3.50
2018-09-17T00:10:24.474Z,3.87
2018-09-17T00:10:59.638Z,3.90
2018-09-17T00:11:34.787Z,3.83
2018-09-17T00:12:09.963Z,3.90
2018-09-17T00:12:45.317Z,4.08
2018-09-17T00:13:20.761Z,3.77
2018-09-17T00:13:55.968Z,4.15
2018-09-17T00:14:31.127Z,4.03
2018-09-17T00:15:07.080Z,3.65
2018-09-17T00:15:42.957Z,3.90
2018-09-17T00:16:18.847Z,3.77
2018-09-17T00:16:54.018Z,3.83
2018-09-17T00:17:29.163Z,3.95
2018-09-17T00:18:04.356Z,4.42
2018-09-17T00:18:39.541Z,4.10
2018-09-17T00:19:15.013Z,4.10
2018-09-17T00:19:50.310Z,3.70
2018-09-17T00:20:25.478Z,4.10
2018-09-17T00:21:00.697Z,4.12
2018-09-17T00:21:35.857Z,3.72
2018-09-17T00:22:11.037Z,4.10
2018-09-17T00:22:46.601Z,4.00
2018-09-17T00:23:21.986Z,4.08
2018-09-17T00:23:57.325Z,3.92
2018-09-17T00:24:32.463Z,3.70
2018-09-17T00:25:07.718Z,3.98
2018-09-17T00:25:43.014Z,4.15
2018-09-17T00:26:18.288Z,3.60
2018-09-17T00:26:53.459Z,4.08
2018-09-17T00:27:28.665Z,3.83
2018-09-17T00:28:03.854Z,3.83
2018-09-17T00:28:39.197Z,4.17
2018-09-17T00:29:14.849Z,3.52
2018-09-17T00:29:50.096Z,3.33
2018-09-17T00:30:25.318Z,3.90
2018-09-17T00:31:00.519Z,3.62
2018-09-17T00:31:35.698Z,3.98
2018-09-17T00:32:10.991Z,3.80
2018-09-17T00:32:47.054Z,3.95
2018-09-17T00:33:22.643Z,3.77
2018-09-17T00:33:57.987Z,3.37
2018-09-17T00:34:33.159Z,3.87
2018-09-17T00:35:08.490Z,4.00
2018-09-17T00:35:44.183Z,3.98
2018-09-17T00:36:19.646Z,4.53
2018-09-17T00:36:54.844Z,4.17
2018-09-17T00:37:30.021Z,3.85
2018-09-17T00:38:05.244Z,4.42
2018-09-17T00:38:40.535Z,4.00
2018-09-17T00:39:16.191Z,3.90
2018-09-17T00:39:51.763Z,3.77
2018-09-17T00:40:26.958Z,4.17
2018-09-17T00:41:02.129Z,3.67
2018-09-17T00:41:37.296Z,3.75
2018-09-17T00:42:12.997Z,4.00
2018-09-17T00:42:51.423Z,3.67
2018-09-17T00:43:26.854Z,4.33
2018-09-17T00:44:02.031Z,3.77
2018-09-17T00:44:37.202Z,4.08
2018-09-17T00:45:12.587Z,3.75
2018-09-17T00:45:48.054Z,4.10
2018-09-17T00:46:23.262Z,4.03
2018-09-17T00:46:57.970Z,3.87
2018-09-17T00:47:33.141Z,3.92
2018-09-17T00:48:08.334Z,4.17
2018-09-17T00:48:43.994Z,3.70
2018-09-17T00:49:19.513Z,4.33
2018-09-17T00:49:54.698Z,3.55
2018-09-17T00:50:29.873Z,4.00
2018-09-17T00:51:05.810Z,3.95
2018-09-17T00:51:41.036Z,4.10
2018-09-17T00:52:16.214Z,3.80
2018-09-17T00:52:51.390Z,3.50
2018-09-17T00:53:26.815Z,4.08
2018-09-17T00:54:02.190Z,3.08
2018-09-17T00:54:37.721Z,3.72
2018-09-17T00:55:12.943Z,4.03
2018-09-17T00:55:48.333Z,3.75
2018-09-17T00:56:23.545Z,3.60
2018-09-17T00:56:58.693Z,3.90
2018-09-17T00:57:33.861Z,3.62
2018-09-17T00:58:09.035Z,3.70
2018-09-17T00:58:44.307Z,3.80
2018-09-17T00:59:19.698Z,3.58
2018-09-17T00:59:54.905Z,3.50
2018-09-17T01:00:30.126Z,3.47
2018-09-17T01:01:05.318Z,3.87
2018-09-17T01:01:40.484Z,3.47
2018-09-17T01:02:16.368Z,3.65
2018-09-17T01:02:51.814Z,3.50
2018-09-17T01:03:26.970Z,3.60
2018-09-17T01:04:02.130Z,3.80
2018-09-17T01:04:37.290Z,4.03
2018-09-17T01:05:12.547Z,3.50
2018-09-17T01:05:47.982Z,3.92
2018-09-17T01:06:23.262Z,3.47
2018-09-17T01:06:58.481Z,3.30
2018-09-17T01:07:33.654Z,3.90
2018-09-17T01:08:08.826Z,3.37
2018-09-17T01:08:44.649Z,4.10
2018-09-17T01:09:25.368Z,3.45
2018-09-17T01:10:00.530Z,3.45
2018-09-17T01:10:35.715Z,3.50
2018-09-17T01:11:10.870Z,3.20
2018-09-17T01:11:46.609Z,3.75
2018-09-17T01:12:21.837Z,4.08
2018-09-17T01:12:57.010Z,3.70
2018-09-17T01:13:32.170Z,3.90
2018-09-17T01:14:07.367Z,3.67
2018-09-17T01:14:42.695Z,3.42
2018-09-17T01:15:18.111Z,3.72
2018-09-17T01:15:53.310Z,3.37
2018-09-17T01:16:28.485Z,3.72
2018-09-17T01:17:03.686Z,3.77
2018-09-17T01:17:39.060Z,3.60
2018-09-17T01:18:14.608Z,4.00
2018-09-17T01:18:50.135Z,3.83
2018-09-17T01:19:25.316Z,3.45
2018-09-17T01:20:00.514Z,3.85
2018-09-17T01:20:35.690Z,3.80
2018-09-17T01:21:10.860Z,3.20
2018-09-17T01:21:46.328Z,3.58
2018-09-17T01:22:21.683Z,3.50
2018-09-17T01:22:56.870Z,4.15
2018-09-17T01:23:32.044Z,3.70
2018-09-17T01:24:07.724Z,3.58
2018-09-17T01:24:42.931Z,3.75
2018-09-17T01:25:18.642Z,4.28
2018-09-17T01:25:53.819Z,3.50
2018-09-17T01:26:29.006Z,3.95
2018-09-17T01:27:04.178Z,3.65
2018-09-17T01:27:39.397Z,3.58
2018-09-17T01:28:15.406Z,4.20
2018-09-17T01:28:51.125Z,3.77
2018-09-17T01:29:28.510Z,3.90
2018-09-17T01:30:03.778Z,3.92
2018-09-17T01:30:39.071Z,3.92
2018-09-17T01:31:17.671Z,4.12
2018-09-17T01:31:53.304Z,4.00
2018-09-17T01:32:28.487Z,4.08
2018-09-17T01:33:03.858Z,3.67
2018-09-17T01:33:39.141Z,4.05
2018-09-17T01:34:14.931Z,4.15
2018-09-17T01:34:55.535Z,4.37
2018-09-17T01:35:30.779Z,3.70
2018-09-17T01:36:06.039Z,4.00
2018-09-17T01:36:41.201Z,4.03
2018-09-17T01:37:20.220Z,3.98
2018-09-17T01:37:55.398Z,3.85
2018-09-17T01:38:30.625Z,4.00
2018-09-17T01:39:07.790Z,3.55
2018-09-17T01:39:47.276Z,3.98
2018-09-17T01:40:22.733Z,3.85
2018-09-17T01:40:57.942Z,3.58
2018-09-17T01:41:33.105Z,4.00
2018-09-17T01:42:08.291Z,3.83
2018-09-17T01:42:43.682Z,4.10
2018-09-17T01:43:23.119Z,3.70
2018-09-17T01:43:58.353Z,4.00
2018-09-17T01:44:33.569Z,4.08
2018-09-17T01:45:09.040Z,4.47
2018-09-17T01:45:46.347Z,3.75
2018-09-17T01:46:27.661Z,3.45
2018-09-17T01:47:05.570Z,3.87
2018-09-17T01:47:40.774Z,4.30
2018-09-17T01:48:21.160Z,3.77
2018-09-17T01:49:00.646Z,3.65
2018-09-17T01:49:38.280Z,3.83
2018-09-17T01:50:16.889Z,4.00
2018-09-17T01:50:59.134Z,3.72
2018-09-17T01:51:37.328Z,3.98
2018-09-17T01:52:12.492Z,3.65
2018-09-17T01:52:47.658Z,4.22
2018-09-17T01:53:23.787Z,4.00
2018-09-17T01:54:01.551Z,4.10
2018-09-17T01:54:36.794Z,3.72
2018-09-17T01:55:11.974Z,3.95
2018-09-17T01:55:49.067Z,4.03
2018-09-17T01:56:27.868Z,3.98
2018-09-17T01:57:03.196Z,4.12
2018-09-17T01:57:38.398Z,4.10
2018-09-17T01:58:13.574Z,4.37
2018-09-17T01:58:52.711Z,4.17
2018-09-17T01:59:30.354Z,4.08
2018-09-17T02:00:06.822Z,4.03
2018-09-17T02:00:42.007Z,4.60
2018-09-17T02:01:21.740Z,5.00
2018-09-17T02:02:02.226Z,4.22
2018-09-17T02:02:39.092Z,4.90
2018-09-17T02:03:14.254Z,4.78
2018-09-17T02:03:56.605Z,4.10
2018-09-17T02:04:35.909Z,4.37
2018-09-17T02:05:14.283Z,4.33
2018-09-17T02:05:49.603Z,4.60
2018-09-17T02:06:30.007Z,4.55
2018-09-17T02:07:09.257Z,4.80
2018-09-17T02:07:45.678Z,4.90
2018-09-17T02:08:31.192Z,4.72
2018-09-17T02:09:08.807Z,5.03
2018-09-17T02:09:45.219Z,5.28
2018-09-17T02:10:20.751Z,5.10
2018-09-17T02:11:02.920Z,4.83
2018-09-17T02:11:38.793Z,4.60
2018-09-17T02:12:14.486Z,5.15
2018-09-17T02:12:51.236Z,4.87
2018-09-17T02:13:29.051Z,5.08
2018-09-17T02:14:04.625Z,5.05
2018-09-17T02:14:40.383Z,5.87
2018-09-17T02:15:15.636Z,4.97
2018-09-17T02:15:52.385Z,4.90
2018-09-17T02:16:30.318Z,4.90
2018-09-17T02:17:06.369Z,5.45
2018-09-17T02:17:41.639Z,5.05
2018-09-17T02:18:17.500Z,4.75
2018-09-17T02:18:55.909Z,5.08
2018-09-17T02:19:33.003Z,5.37
2018-09-17T02:20:08.255Z,4.60
2018-09-17T02:20:43.423Z,4.75
2018-09-17T02:21:21.411Z,4.92
2018-09-17T02:21:58.582Z,4.83
2018-09-17T02:22:34.645Z,4.97
2018-09-17T02:23:09.814Z,5.40
2018-09-17T02:23:44.937Z,4.95
2018-09-17T02:24:24.238Z,4.85
2018-09-17T02:25:01.556Z,4.78
2018-09-17T02:25:36.726Z,4.50
2018-09-17T02:26:12.065Z,4.62
2018-09-17T02:26:48.708Z,4.60
2018-09-17T02:27:25.763Z,4.95
2018-09-17T02:28:01.201Z,5.05
2018-09-17T02:28:36.418Z,5.22
2018-09-17T02:29:11.860Z,5.20
2018-09-17T02:29:49.475Z,5.28
2018-09-17T02:30:25.482Z,4.50
2018-09-17T02:31:01.025Z,4.90
2018-09-17T02:31:36.410Z,5.35
2018-09-17T02:32:11.693Z,5.12
2018-09-17T02:32:49.247Z,4.70
2018-09-17T02:33:29.577Z,5.72
2018-09-17T02:34:05.272Z,5.37
2018-09-17T02:34:40.465Z,5.55
2018-09-17T02:35:15.813Z,5.53
2018-09-17T02:35:53.462Z,5.40
2018-09-17T02:36:32.554Z,5.20
2018-09-17T02:37:08.240Z,5.12
2018-09-17T02:37:43.504Z,5.60
2018-09-17T02:38:20.690Z,5.37
2018-09-17T02:38:56.208Z,5.65
2018-09-17T02:39:31.394Z,4.80
2018-09-17T02:40:18.408Z,5.05
2018-09-17T02:40:59.422Z,5.50
2018-09-17T02:41:36.674Z,5.60
2018-09-17T02:42:12.095Z,5.65
2018-09-17T02:42:50.311Z,5.08
2018-09-17T02:43:28.076Z,5.37
2018-09-17T02:44:03.288Z,5.25
2018-09-17T02:44:44.845Z,5.33
2018-09-17T02:45:21.938Z,5.20
2018-09-17T02:45:58.002Z,5.85
2018-09-17T02:46:34.655Z,6.05
2018-09-17T02:47:09.839Z,5.22
2018-09-17T02:47:45.034Z,5.83
2018-09-17T02:48:22.247Z,5.53
2018-09-17T02:48:57.857Z,6.28
2018-09-17T02:49:33.009Z,5.78
2018-09-17T02:50:08.198Z,5.50
2018-09-17T02:50:43.380Z,5.67
2018-09-17T02:51:19.070Z,5.05
2018-09-17T02:51:54.246Z,4.95
2018-09-17T02:52:29.470Z,5.47
2018-09-17T02:53:04.651Z,5.47
2018-09-17T02:53:39.908Z,5.33
2018-09-17T02:54:15.239Z,5.03
2018-09-17T02:54:50.638Z,5.55
2018-09-17T02:55:26.056Z,5.40
2018-09-17T02:56:01.208Z,4.72
2018-09-17T02:56:36.398Z,5.22
2018-09-17T02:57:11.566Z,5.28
2018-09-17T02:57:46.317Z,5.12
2018-09-17T02:58:21.953Z,4.85
2018-09-17T02:58:57.561Z,4.95
2018-09-17T02:59:32.751Z,5.15
2018-09-17T03:00:09.481Z,5.72
2018-09-17T03:00:44.774Z,4.87
2018-09-17T03:01:20.422Z,5.65
2018-09-17T03:01:55.913Z,5.75
2018-09-17T03:02:30.834Z,5.37
2018-09-17T03:03:06.548Z,5.75
2018-09-17T03:03:41.775Z,5.75
2018-09-17T03:04:17.381Z,5.95
2018-09-17T03:04:52.637Z,5.37
2018-09-17T03:05:27.821Z,5.72
2018-09-17T03:06:03.002Z,5.90
2018-09-17T03:06:38.153Z,5.95
2018-09-17T03:07:13.397Z,6.37
2018-09-17T03:07:48.665Z,5.65
2018-09-17T03:08:24.103Z,5.80
2018-09-17T03:08:59.255Z,5.72
2018-09-17T03:09:34.418Z,5.65
2018-09-17T03:10:09.613Z,5.28
2018-09-17T03:10:44.758Z,5.75
2018-09-17T03:11:20.618Z,5.62
2018-09-17T03:11:55.867Z,5.50
2018-09-17T03:12:31.147Z,4.85
2018-09-17T03:13:06.463Z,5.53
2018-09-17T03:13:41.659Z,4.85
2018-09-17T03:14:17.126Z,5.03
2018-09-17T03:14:52.450Z,5.30
2018-09-17T03:15:38.884Z,5.08
2018-09-17T03:16:14.041Z,5.60
2018-09-17T03:17:00.387Z,5.10
2018-09-17T03:17:35.568Z,5.08
2018-09-17T03:18:10.740Z,5.30
2018-09-17T03:18:56.632Z,5.70
2018-09-17T03:19:32.163Z,4.80
2018-09-17T03:20:07.671Z,6.15
2018-09-17T03:20:42.861Z,5.83
2018-09-17T03:21:19.526Z,4.87
2018-09-17T03:21:54.882Z,5.33
2018-09-17T03:22:30.065Z,4.83
2018-09-17T03:23:05.230Z,5.22
2018-09-17T03:23:40.418Z,5.35
2018-09-17T03:24:16.018Z,5.12
2018-09-17T03:24:51.305Z,4.78
2018-09-17T03:25:26.667Z,5.58
2018-09-17T03:26:01.908Z,5.45
2018-09-17T03:26:37.083Z,5.42
2018-09-17T03:27:12.576Z,5.17
2018-09-17T03:27:48.183Z,5.03
2018-09-17T03:28:24.212Z,4.67
2018-09-17T03:28:59.375Z,4.80
2018-09-17T03:29:34.651Z,4.37
2018-09-17T03:30:09.838Z,4.97
2018-09-17T03:30:44.552Z,5.10
2018-09-17T03:31:20.334Z,4.42
2018-09-17T03:31:55.781Z,5.28
2018-09-17T03:32:31.338Z,5.72
2018-09-17T03:33:06.868Z,5.12
2018-09-17T03:33:42.010Z,5.20
2018-09-17T03:34:17.253Z,5.33
2018-09-17T03:34:52.588Z,5.40
2018-09-17T03:35:27.878Z,5.30
2018-09-17T03:36:03.050Z,4.97
2018-09-17T03:36:38.219Z,5.70
2018-09-17T03:37:13.453Z,5.97
2018-09-17T03:37:48.911Z,5.97
2018-09-17T03:38:37.795Z,6.28
2018-09-17T03:39:12.991Z,6.47
2018-09-17T03:39:48.379Z,6.75
2018-09-17T03:40:24.280Z,6.25
2018-09-17T03:40:59.574Z,7.22
2018-09-17T03:41:35.066Z,6.28
2018-09-17T03:42:10.294Z,5.70
2018-09-17T03:42:45.488Z,5.90
2018-09-17T03:43:21.246Z,5.45
2018-09-17T03:43:56.807Z,5.78
2018-09-17T03:44:32.020Z,5.35
2018-09-17T03:45:07.243Z,5.80
2018-09-17T03:45:42.604Z,5.97
2018-09-17T03:46:18.308Z,5.72
2018-09-17T03:46:53.739Z,5.40
2018-09-17T03:47:28.979Z,6.03
2018-09-17T03:48:04.210Z,5.90
2018-09-17T03:48:40.297Z,5.80
2018-09-17T03:49:15.470Z,5.22
2018-09-17T03:49:50.855Z,5.28
2018-09-17T03:50:26.167Z,5.45
2018-09-17T03:51:01.915Z,5.33
2018-09-17T03:51:37.123Z,5.80
2018-09-17T03:52:12.310Z,5.97
2018-09-17T03:52:47.499Z,5.67
2018-09-17T03:53:23.469Z,5.80
2018-09-17T03:53:58.743Z,5.58
2018-09-17T03:54:33.938Z,5.72
2018-09-17T03:55:09.132Z,5.72
2018-09-17T03:55:44.465Z,5.17
2018-09-17T03:56:19.888Z,5.67
2018-09-17T03:56:55.244Z,5.80
2018-09-17T03:57:30.452Z,5.65
2018-09-17T03:58:05.866Z,5.62
2018-09-17T03:58:41.064Z,5.60
2018-09-17T03:59:16.248Z,5.10
2018-09-17T03:59:51.658Z,6.22
2018-09-17T04:00:27.527Z,5.70
2018-09-17T04:01:03.476Z,5.60
2018-09-17T04:01:38.666Z,5.65
2018-09-17T04:02:14.011Z,6.00
2018-09-17T04:02:49.439Z,6.22
2018-09-17T04:03:24.970Z,6.47
2018-09-17T04:04:00.173Z,6.55
2018-09-17T04:04:35.403Z,6.75
2018-09-17T04:05:10.629Z,6.08
2018-09-17T04:05:45.935Z,6.97
2018-09-17T04:06:21.316Z,6.75
2018-09-17T04:06:56.727Z,7.30
2018-09-17T04:07:31.918Z,7.15
2018-09-17T04:08:07.111Z,6.92
2018-09-17T04:08:42.439Z,6.80
2018-09-17T04:09:17.930Z,6.78
2018-09-17T04:09:53.304Z,6.30
2018-09-17T04:10:28.627Z,7.05
2018-09-17T04:11:03.789Z,6.90
2018-09-17T04:11:38.966Z,6.90
2018-09-17T04:12:15.192Z,7.17
2018-09-17T04:12:50.640Z,7.72
2018-09-17T04:13:26.377Z,7.17
2018-09-17T04:14:01.557Z,8.05
2018-09-17T04:14:36.745Z,7.50
2018-09-17T04:15:11.970Z,7.15
2018-09-17T04:15:48.378Z,7.47
2018-09-17T04:16:24.035Z,7.42
2018-09-17T04:16:59.246Z,7.55
2018-09-17T04:17:34.526Z,7.40
2018-09-17T04:18:09.710Z,7.28
2018-09-17T04:18:44.928Z,7.03
2018-09-17T04:19:20.555Z,7.40
2018-09-17T04:19:55.813Z,8.05
2018-09-17T04:20:31.112Z,7.45
2018-09-17T04:21:07.040Z,7.50
2018-09-17T04:21:42.225Z,7.97
2018-09-17T04:22:17.467Z,7.97
2018-09-17T04:22:53.031Z,7.20
2018-09-17T04:23:35.183Z,7.85
2018-09-17T04:24:10.358Z,7.45
2018-09-17T04:24:45.532Z,7.83
2018-09-17T04:25:21.014Z,8.13
2018-09-17T04:25:56.398Z,8.58
2018-09-17T04:26:31.113Z,8.40
2018-09-17T04:27:05.874Z,7.97
2018-09-17T04:27:40.585Z,7.90
2018-09-17T04:28:15.334Z,8.20
2018-09-17T04:28:50.754Z,8.53
2018-09-17T04:29:26.672Z,7.92
2018-09-17T04:30:01.952Z,7.85
2018-09-17T04:30:37.246Z,8.50
2018-09-17T04:31:12.450Z,7.85
2018-09-17T04:31:48.206Z,8.65
2018-09-17T04:32:24.243Z,8.80
2018-09-17T04:32:59.448Z,7.72
2018-09-17T04:33:37.002Z,9.88
2018-09-17T04:34:12.340Z,9.30
2018-09-17T04:34:47.767Z,8.55
2018-09-17T04:35:23.499Z,8.53
2018-09-17T04:35:58.673Z,8.40
2018-09-17T04:36:33.482Z,8.15
2018-09-17T04:37:08.692Z,9.10
2018-09-17T04:37:44.289Z,10.28
2018-09-17T04:38:19.763Z,8.68
2018-09-17T04:38:55.465Z,8.53
2018-09-17T04:39:30.707Z,8.75
2018-09-17T04:40:06.391Z,8.70
2018-09-17T04:40:41.562Z,8.40
2018-09-17T04:41:16.825Z,9.28
2018-09-17T04:41:52.296Z,8.33
2018-09-17T04:42:27.567Z,9.25
2018-09-17T04:43:02.757Z,9.40
2018-09-17T04:43:37.986Z,9.18
2018-09-17T04:44:13.161Z,8.60
2018-09-17T04:44:48.714Z,9.10
2018-09-17T04:45:24.322Z,9.13
2018-09-17T04:45:59.905Z,8.73
2018-09-17T04:46:34.662Z,8.95
2018-09-17T04:47:09.822Z,8.38
2018-09-17T04:47:45.024Z,9.33
2018-09-17T04:48:20.466Z,9.10
2018-09-17T04:48:56.042Z,8.70
2018-09-17T04:49:31.215Z,9.00
2018-09-17T04:50:06.643Z,8.75
2018-09-17T04:50:41.833Z,9.15
2018-09-17T04:51:17.099Z,8.70
2018-09-17T04:51:52.554Z,8.75
2018-09-17T04:52:27.739Z,8.65
2018-09-17T04:53:02.898Z,9.05
2018-09-17T04:53:38.099Z,8.38
2018-09-17T04:54:13.298Z,8.80
2018-09-17T04:54:49.585Z,8.70
2018-09-17T04:55:24.941Z,10.18
2018-09-17T04:56:00.128Z,8.70
2018-09-17T04:56:35.309Z,8.73
2018-09-17T04:57:10.519Z,9.80
2018-09-17T04:57:45.881Z,8.65
2018-09-17T04:58:21.549Z,8.45
2018-09-17T04:58:56.946Z,8.68
2018-09-17T04:59:32.140Z,9.50
2018-09-17T05:00:07.364Z,10.40
2018-09-17T05:00:42.585Z,11.97
2018-09-17T05:01:18.314Z,10.08
2018-09-17T05:01:53.640Z,10.23
2018-09-17T05:02:28.822Z,9.60
2018-09-17T05:03:04.022Z,9.25
2018-09-17T05:03:39.273Z,11.43
2018-09-17T05:04:14.505Z,9.30
2018-09-17T05:04:50.039Z,8.80
2018-09-17T05:05:25.801Z,9.93
2018-09-17T05:06:01.127Z,11.97
2018-09-17T05:06:36.318Z,10.32
2018-09-17T05:07:11.522Z,9.90
2018-09-17T05:07:47.026Z,9.65
2018-09-17T05:08:22.508Z,11.03
2018-09-17T05:08:57.743Z,10.58
2018-09-17T05:09:32.981Z,9.98
2018-09-17T05:10:08.566Z,9.48
2018-09-17T05:10:43.755Z,8.80
2018-09-17T05:11:19.150Z,9.90
2018-09-17T05:11:53.852Z,10.63
2018-09-17T05:12:29.023Z,9.48
2018-09-17T05:13:04.249Z,9.45
2018-09-17T05:13:39.625Z,10.00
2018-09-17T05:14:14.797Z,9.05
2018-09-17T05:14:50.289Z,9.55
2018-09-17T05:15:25.923Z,9.50
2018-09-17T05:16:01.103Z,9.73
2018-09-17T05:16:36.282Z,11.12
2018-09-17T05:17:11.555Z,10.53
2018-09-17T05:17:47.102Z,9.70
2018-09-17T05:18:22.576Z,9.90
2018-09-17T05:18:58.063Z,9.88
2018-09-17T05:19:33.254Z,9.98
2018-09-17T05:20:08.583Z,9.93
2018-09-17T05:20:43.903Z,10.25
2018-09-17T05:21:19.639Z,9.50
2018-09-17T05:21:55.131Z,9.60
2018-09-17T05:22:30.464Z,9.83
2018-09-17T05:23:05.655Z,9.20
2018-09-17T05:23:41.123Z,9.93
2018-09-17T05:24:16.357Z,9.43
2018-09-17T05:24:51.685Z,10.35
2018-09-17T05:25:27.355Z,9.23
2018-09-17T05:26:02.593Z,10.63
2018-09-17T05:26:37.763Z,10.45
2018-09-17T05:27:12.993Z,10.10
2018-09-17T05:27:48.371Z,10.03
2018-09-17T05:28:23.730Z,10.00
2018-09-17T05:28:59.135Z,10.93
2018-09-17T05:29:34.344Z,10.03
2018-09-17T05:30:09.769Z,9.90
2018-09-17T05:30:44.978Z,10.25
2018-09-17T05:31:20.700Z,10.03
2018-09-17T05:31:56.395Z,10.30
2018-09-17T05:32:31.748Z,9.60
2018-09-17T05:33:07.083Z,10.43
2018-09-17T05:33:42.394Z,10.28
2018-09-17T05:34:17.885Z,9.98
2018-09-17T05:34:53.774Z,9.85
2018-09-17T05:35:29.848Z,10.28
2018-09-17T05:36:05.463Z,9.65
2018-09-17T05:36:40.662Z,10.98
2018-09-17T05:37:16.045Z,10.15
2018-09-17T05:37:51.907Z,9.73
2018-09-17T05:38:27.446Z,10.10
2018-09-17T05:39:03.150Z,10.38
2018-09-17T05:39:38.359Z,10.65
2018-09-17T05:40:13.570Z,10.95
2018-09-17T05:40:48.892Z,11.08
2018-09-17T05:41:24.626Z,11.10
2018-09-17T05:41:59.805Z,11.73
2018-09-17T05:42:34.990Z,11.15
2018-09-17T05:43:10.250Z,11.80
2018-09-17T05:43:45.673Z,10.35
2018-09-17T05:44:20.951Z,11.90
2018-09-17T05:44:56.518Z,11.08
2018-09-17T05:45:31.791Z,10.95
2018-09-17T05:46:07.001Z,10.85
2018-09-17T05:46:42.224Z,10.70
2018-09-17T05:47:18.175Z,11.18
2018-09-17T05:47:53.802Z,11.45
2018-09-17T05:48:29.049Z,11.43
2018-09-17T05:49:04.330Z,11.60
2018-09-17T05:49:39.902Z,10.90
2018-09-17T05:50:15.132Z,10.15
2018-09-17T05:50:50.457Z,10.90
2018-09-17T05:51:26.028Z,9.73
2018-09-17T05:52:01.241Z,10.08
2018-09-17T05:52:36.462Z,11.80
2018-09-17T05:53:11.678Z,11.70
2018-09-17T05:53:47.097Z,10.08
2018-09-17T05:54:22.717Z,10.05
2018-09-17T05:54:57.990Z,9.88
2018-09-17T05:55:33.205Z,10.28
2018-09-17T05:56:08.517Z,9.73
2018-09-17T05:56:43.724Z,10.32
2018-09-17T05:57:19.342Z,10.43
2018-09-17T05:57:54.868Z,11.03
2018-09-17T05:58:30.065Z,11.68
2018-09-17T05:59:05.681Z,10.13
2018-09-17T05:59:41.080Z,10.00
2018-09-17T06:00:16.406Z,9.60
2018-09-17T06:00:52.107Z,9.53
2018-09-17T06:01:27.497Z,9.68
2018-09-17T06:02:02.665Z,10.58
2018-09-17T06:02:37.878Z,10.50
2018-09-17T06:03:13.058Z,9.95
2018-09-17T06:03:48.480Z,9.93
2018-09-17T06:04:23.916Z,10.00
2018-09-17T06:04:59.145Z,10.25
2018-09-17T06:05:35.938Z,10.15
2018-09-17T06:06:12.105Z,10.63
2018-09-17T06:06:47.889Z,11.05
2018-09-17T06:07:24.410Z,11.55
2018-09-17T06:07:59.693Z,10.08
2018-09-17T06:08:34.906Z,9.95
2018-09-17T06:09:12.455Z,9.60
2018-09-17T06:09:47.936Z,9.93
2018-09-17T06:10:23.502Z,9.38
2018-09-17T06:10:58.700Z,9.73
2018-09-17T06:11:34.098Z,9.88
2018-09-17T06:12:09.338Z,9.50
2018-09-17T06:12:46.276Z,10.25
2018-09-17T06:13:21.984Z,9.75
2018-09-17T06:13:57.543Z,9.63
2018-09-17T06:14:32.820Z,9.30
2018-09-17T06:15:08.498Z,9.63
2018-09-17T06:15:43.706Z,9.38
2018-09-17T06:16:19.229Z,9.83
2018-09-17T06:16:54.617Z,10.35
2018-09-17T06:17:29.768Z,10.23
2018-09-17T06:18:05.265Z,11.33
2018-09-17T06:18:40.851Z,10.40
2018-09-17T06:19:16.061Z,9.38
2018-09-17T06:19:51.787Z,9.18
2018-09-17T06:20:27.440Z,9.83
2018-09-17T06:21:02.864Z,9.40
2018-09-17T06:21:38.034Z,11.10
2018-09-17T06:22:13.299Z,8.23
2018-09-17T06:22:48.574Z,8.93
2018-09-17T06:23:24.136Z,8.45
2018-09-17T06:23:59.601Z,9.13
2018-09-17T06:24:34.804Z,9.03
2018-09-17T06:25:09.989Z,9.38
2018-09-17T06:25:45.266Z,9.90
2018-09-17T06:26:20.810Z,9.15
2018-09-17T06:26:56.493Z,9.05
2018-09-17T06:27:31.719Z,10.13
2018-09-17T06:28:06.934Z,9.30
2018-09-17T06:28:42.208Z,8.58
2018-09-17T06:29:17.584Z,9.80
2018-09-17T06:29:53.066Z,9.15
2018-09-17T06:30:28.326Z,9.73
2018-09-17T06:31:03.581Z,8.78
2018-09-17T06:31:38.800Z,10.23
2018-09-17T06:32:14.169Z,10.08
2018-09-17T06:32:49.662Z,10.10
2018-09-17T06:33:25.066Z,10.03
2018-09-17T06:34:00.222Z,9.83
2018-09-17T06:34:35.418Z,9.70
2018-09-17T06:35:10.612Z,10.75
2018-09-17T06:35:45.889Z,10.00
2018-09-17T06:36:21.484Z,10.70
2018-09-17T06:37:32.434Z,9.50
2018-09-17T06:38:08.222Z,10.10
2018-09-17T06:38:43.423Z,10.00
2018-09-17T06:39:18.715Z,10.05
2018-09-17T06:39:54.540Z,9.80
2018-09-17T06:40:29.738Z,9.15
2018-09-17T06:41:04.968Z,9.50
2018-09-17T06:41:40.173Z,10.30
2018-09-17T06:42:15.574Z,10.63
2018-09-17T06:42:51.023Z,10.00
2018-09-17T06:43:26.418Z,9.38
2018-09-17T06:44:01.612Z,10.18
2018-09-17T06:44:37.214Z,11.05
2018-09-17T06:45:12.419Z,10.23
2018-09-17T06:45:47.675Z,10.63
2018-09-17T06:46:23.164Z,9.98
2018-09-17T06:46:58.690Z,10.40
2018-09-17T06:47:33.410Z,10.05
2018-09-17T06:48:08.615Z,9.95
2018-09-17T06:48:43.854Z,9.75
2018-09-17T06:49:19.156Z,9.60
2018-09-17T06:49:54.671Z,9.38
2018-09-17T06:50:30.116Z,9.83
2018-09-17T06:51:05.538Z,9.83
2018-09-17T06:51:40.788Z,10.38
2018-09-17T06:52:16.064Z,10.10
2018-09-17T06:52:51.242Z,9.50
2018-09-17T06:53:27.081Z,10.48
2018-09-17T06:54:02.385Z,11.15
2018-09-17T06:54:37.645Z,10.82
2018-09-17T06:55:13.102Z,9.88
2018-09-17T06:55:48.362Z,11.03
2018-09-17T06:56:24.025Z,10.70
2018-09-17T06:56:59.509Z,10.70
2018-09-17T06:57:34.722Z,10.40
2018-09-17T06:58:09.931Z,10.08
2018-09-17T06:58:45.160Z,11.53
2018-09-17T06:59:20.620Z,10.30
2018-09-17T06:59:56.209Z,11.22
2018-09-17T07:00:31.422Z,11.40
2018-09-17T07:01:06.702Z,10.10
2018-09-17T07:01:42.004Z,10.63
2018-09-17T07:02:17.215Z,10.68
2018-09-17T07:02:52.436Z,11.35
2018-09-17T07:03:27.689Z,11.53
2018-09-17T07:04:02.890Z,11.45
2018-09-17T07:04:38.081Z,11.28
2018-09-17T07:05:13.271Z,11.68
2018-09-17T07:05:49.060Z,12.43
2018-09-17T07:06:25.059Z,12.35
2018-09-17T07:07:00.265Z,12.25
2018-09-17T07:07:35.480Z,13.48
2018-09-17T07:08:10.700Z,12.85
2018-09-17T07:08:46.019Z,12.03
2018-09-17T07:09:21.458Z,11.63
2018-09-17T07:09:56.856Z,12.05
2018-09-17T07:10:32.091Z,11.88
2018-09-17T07:11:08.499Z,10.82
2018-09-17T07:11:43.711Z,11.75
2018-09-17T07:12:19.088Z,11.03
2018-09-17T07:12:54.720Z,10.95
2018-09-17T07:13:30.064Z,11.00
2018-09-17T07:14:05.289Z,11.05
2018-09-17T07:14:40.493Z,10.48
2018-09-17T07:15:15.712Z,10.23
2018-09-17T07:15:51.204Z,9.95
2018-09-17T07:16:26.778Z,10.38
2018-09-17T07:17:02.070Z,10.55
2018-09-17T07:17:37.451Z,10.25
2018-09-17T07:18:12.632Z,10.48
2018-09-17T07:18:48.563Z,9.93
2018-09-17T07:19:24.067Z,10.80
2018-09-17T07:19:59.275Z,10.40
2018-09-17T07:20:34.470Z,11.03
2018-09-17T07:21:09.691Z,10.88
2018-09-17T07:21:44.878Z,10.43
2018-09-17T07:22:20.598Z,10.10
2018-09-17T07:22:55.954Z,10.63
2018-09-17T07:23:30.699Z,10.90
2018-09-17T07:24:06.327Z,10.63
2018-09-17T07:24:41.546Z,12.05
2018-09-17T07:25:16.810Z,12.47
2018-09-17T07:25:52.775Z,12.35
2018-09-17T07:26:28.134Z,12.05
2018-09-17T07:27:03.358Z,10.32
2018-09-17T07:27:38.561Z,10.78
2018-09-17T07:28:13.717Z,9.30
2018-09-17T07:28:49.309Z,9.93
2018-09-17T07:29:25.058Z,9.95
2018-09-17T07:30:00.374Z,10.98
2018-09-17T07:30:35.567Z,10.53
2018-09-17T07:31:10.757Z,10.45
2018-09-17T07:31:45.938Z,9.70
2018-09-17T07:32:21.521Z,10.70
2018-09-17T07:32:57.055Z,9.78
2018-09-17T07:33:32.355Z,9.88
2018-09-17T07:34:07.542Z,10.05
2018-09-17T07:34:43.088Z,10.30
2018-09-17T07:35:18.362Z,9.58
2018-09-17T07:35:53.689Z,11.08
2018-09-17T07:36:29.679Z,10.38
2018-09-17T07:37:05.050Z,11.08
2018-09-17T07:37:40.255Z,13.85
2018-09-17T07:38:15.475Z,11.60
2018-09-17T07:38:51.542Z,12.73
2018-09-17T07:39:27.007Z,11.00
2018-09-17T07:40:02.179Z,10.75
2018-09-17T07:40:37.587Z,11.75
2018-09-17T07:41:13.001Z,14.23
2018-09-17T07:41:48.761Z,11.93
2018-09-17T07:42:24.163Z,11.73
2018-09-17T07:42:59.558Z,10.75
2018-09-17T07:43:34.754Z,11.18
2018-09-17T07:44:09.950Z,11.03
2018-09-17T07:44:45.155Z,11.65
2018-09-17T07:45:20.670Z,11.08
2018-09-17T07:45:56.127Z,11.15
2018-09-17T07:46:31.306Z,11.12
2018-09-17T07:47:06.586Z,10.85
2018-09-17T07:47:41.802Z,11.30
2018-09-17T07:48:16.997Z,11.12
2018-09-17T07:48:52.446Z,11.43
2018-09-17T07:49:27.875Z,11.68
2018-09-17T07:50:03.157Z,11.45
2018-09-17T07:50:38.531Z,11.90
2018-09-17T07:51:13.729Z,11.78
2018-09-17T07:51:49.212Z,11.78
2018-09-17T07:52:24.946Z,11.85